Time;durP1;ratioP1;P1;durP2;ratioP2;P2;SDS_P1;SDS_P2;PMS_P1;PMS_P2;Temp;Humidity;BMP_temperature;BMP_pressure;BME280_temperature;BME280_humidity;BME280_pressure;Samples;Min_cycle;Max_cycle;Signal;HPM_P1;HPM_P2
2022/07/12 00:00:41;;;;;;;2.05;1.70;;;;;;;;;;1757893;81;21140;-62
2022/07/12 00:03:08;;;;;;;3.12;1.55;;;;;;;;;;1751478;82;21037;-62
2022/07/12 00:05:35;;;;;;;2.33;1.50;;;;;;;;;;1732434;81;21086;-62
2022/07/12 00:08:01;;;;;;;1.70;1.57;;;;;;;;;;1752664;82;21037;-62
2022/07/12 00:10:29;;;;;;;3.08;1.57;;;;;;;;;;1754301;81;21651;-63
2022/07/12 00:12:56;;;;;;;2.83;2.10;;;;;;;;;;1754137;82;21036;-63
2022/07/12 00:15:22;;;;;;;2.00;1.60;;;;;;;;;;1746735;81;21315;-63
2022/07/12 00:17:49;;;;;;;4.05;1.70;;;;;;;;;;1743276;82;21559;-63
2022/07/12 00:20:15;;;;;;;3.12;1.70;;;;;;;;;;1724388;82;21049;-62
2022/07/12 00:22:41;;;;;;;2.22;1.52;;;;;;;;;;1731511;82;21022;-63
2022/07/12 00:25:08;;;;;;;3.70;1.50;;;;;;;;;;1731214;82;21060;-63
2022/07/12 00:27:35;;;;;;;2.55;1.42;;;;;;;;;;1723961;83;21564;-62
2022/07/12 00:30:01;;;;;;;1.75;1.55;;;;;;;;;;1723713;83;21060;-62
2022/07/12 00:32:28;;;;;;;2.70;1.45;;;;;;;;;;1723676;83;21048;-62
2022/07/12 00:34:54;;;;;;;5.60;1.60;;;;;;;;;;1742057;82;21492;-62
2022/07/12 00:37:20;;;;;;;2.27;1.42;;;;;;;;;;1730901;82;21508;-62
2022/07/12 00:39:46;;;;;;;1.98;1.52;;;;;;;;;;1753809;82;20997;-62
2022/07/12 00:42:12;;;;;;;2.12;1.57;;;;;;;;;;1753764;82;22177;-62
2022/07/12 00:44:38;;;;;;;1.72;1.52;;;;;;;;;;1753092;82;21033;-61
2022/07/12 00:47:06;;;;;;;1.62;1.40;;;;;;;;;;1753118;81;21002;-61
2022/07/12 00:49:32;;;;;;;2.33;1.60;;;;;;;;;;1753615;81;21508;-62
2022/07/12 00:51:59;;;;;;;1.50;1.40;;;;;;;;;;1753695;82;21111;-62
2022/07/12 00:54:25;;;;;;;3.15;1.55;;;;;;;;;;1740052;82;21065;-61
2022/07/12 00:56:51;;;;;;;2.62;1.50;;;;;;;;;;1746817;82;21068;-61
2022/07/12 00:59:17;;;;;;;1.92;1.57;;;;;;;;;;1752295;81;21489;-62
2022/07/12 01:04:32;;;;;;;1.95;1.62;;;;;;;;;;1731422;80;21092;-61
2022/07/12 01:06:58;;;;;;;2.10;1.60;;;;;;;;;;1732613;82;21084;-62
2022/07/12 01:09:24;;;;;;;1.75;1.40;;;;;;;;;;1723889;83;21494;-60
2022/07/12 01:11:50;;;;;;;2.25;1.70;;;;;;;;;;1747514;82;21033;-61
2022/07/12 01:14:16;;;;;;;2.00;1.70;;;;;;;;;;1753885;82;20981;-62
2022/07/12 01:16:42;;;;;;;1.90;1.60;;;;;;;;;;1746409;82;21029;-62
2022/07/12 01:19:08;;;;;;;1.87;1.60;;;;;;;;;;1724005;82;21049;-62
2022/07/12 01:21:36;;;;;;;2.12;1.60;;;;;;;;;;1723102;82;20995;-61
2022/07/12 01:24:02;;;;;;;1.60;1.50;;;;;;;;;;1723769;83;21047;-61
2022/07/12 01:26:28;;;;;;;3.55;1.80;;;;;;;;;;1729528;82;21037;-61
2022/07/12 01:28:55;;;;;;;4.15;1.87;;;;;;;;;;1751124;82;21032;-61
2022/07/12 01:31:21;;;;;;;3.83;1.60;;;;;;;;;;1748535;82;21111;-61
2022/07/12 01:33:48;;;;;;;2.00;1.52;;;;;;;;;;1751756;82;21032;-62
2022/07/12 01:36:14;;;;;;;2.75;1.50;;;;;;;;;;1723575;83;21069;-62
2022/07/12 01:38:40;;;;;;;4.17;1.50;;;;;;;;;;1731998;82;21048;-63
2022/07/12 01:41:08;;;;;;;2.12;1.62;;;;;;;;;;1723461;82;21558;-61
2022/07/12 01:43:34;;;;;;;3.30;1.82;;;;;;;;;;1731284;82;21005;-62
2022/07/12 01:46:00;;;;;;;3.25;1.65;;;;;;;;;;1735540;82;21061;-61
2022/07/12 01:48:26;;;;;;;2.70;1.70;;;;;;;;;;1749930;82;21025;-62
2022/07/12 01:50:53;;;;;;;1.72;1.62;;;;;;;;;;1726198;82;21067;-62
2022/07/12 01:53:20;;;;;;;3.42;1.80;;;;;;;;;;1734328;82;21557;-62
2022/07/12 01:55:46;;;;;;;2.72;1.70;;;;;;;;;;1743942;82;21395;-62
2022/07/12 01:58:13;;;;;;;2.37;1.60;;;;;;;;;;1744315;82;20994;-61
2022/07/12 02:00:39;;;;;;;4.00;1.42;;;;;;;;;;1729728;82;21588;-62
2022/07/12 02:03:06;;;;;;;1.80;1.52;;;;;;;;;;1725730;80;21637;-61
2022/07/12 02:05:32;;;;;;;2.20;1.60;;;;;;;;;;1707048;82;21093;-62
2022/07/12 02:07:58;;;;;;;1.65;1.55;;;;;;;;;;1704926;84;21061;-61
2022/07/12 02:10:24;;;;;;;3.52;1.70;;;;;;;;;;1704587;84;21018;-61
2022/07/12 02:12:51;;;;;;;2.17;1.60;;;;;;;;;;1704078;84;21090;-61
2022/07/12 02:15:17;;;;;;;5.70;1.80;;;;;;;;;;1705252;84;21069;-61
2022/07/12 02:17:44;;;;;;;2.00;1.77;;;;;;;;;;1705643;84;21124;-61
2022/07/12 02:20:12;;;;;;;2.05;1.62;;;;;;;;;;1704628;84;21022;-62
2022/07/12 02:22:39;;;;;;;2.47;1.82;;;;;;;;;;1705459;84;21010;-63
2022/07/12 02:25:05;;;;;;;2.12;1.85;;;;;;;;;;1722279;83;21053;-62
2022/07/12 02:27:33;;;;;;;5.00;2.10;;;;;;;;;;1734651;83;21085;-62
2022/07/12 02:29:59;;;;;;;3.62;1.70;;;;;;;;;;1721068;83;21093;-62
2022/07/12 02:32:25;;;;;;;2.30;1.55;;;;;;;;;;1700326;84;21057;-63
2022/07/12 02:34:51;;;;;;;2.67;1.70;;;;;;;;;;1704114;84;21089;-62
2022/07/12 02:37:17;;;;;;;1.82;1.60;;;;;;;;;;1703869;84;21042;-62
2022/07/12 02:39:44;;;;;;;1.65;1.40;;;;;;;;;;1705347;83;21085;-62
2022/07/12 02:42:11;;;;;;;4.50;1.80;;;;;;;;;;1704344;84;21061;-63
2022/07/12 02:44:37;;;;;;;3.52;1.70;;;;;;;;;;1703983;84;21560;-63
2022/07/12 02:47:03;;;;;;;2.50;1.70;;;;;;;;;;1704295;84;20986;-61
2022/07/12 02:49:29;;;;;;;2.22;1.50;;;;;;;;;;1705661;83;21632;-63
2022/07/12 02:51:55;;;;;;;1.67;1.47;;;;;;;;;;1705101;84;21104;-61
2022/07/12 02:54:22;;;;;;;2.10;1.67;;;;;;;;;;1705455;84;21069;-61
2022/07/12 02:56:48;;;;;;;4.08;1.82;;;;;;;;;;1705383;84;21057;-63
2022/07/12 02:59:15;;;;;;;3.42;1.77;;;;;;;;;;1706415;83;21049;-61
2022/07/12 03:01:41;;;;;;;2.30;1.70;;;;;;;;;;1705406;83;21131;-61
2022/07/12 03:04:08;;;;;;;1.65;1.52;;;;;;;;;;1709860;82;21639;-62
2022/07/12 03:06:35;;;;;;;1.72;1.40;;;;;;;;;;1727727;83;21073;-62
2022/07/12 03:09:02;;;;;;;1.90;1.70;;;;;;;;;;1728531;83;21066;-62
2022/07/12 03:11:28;;;;;;;2.55;1.90;;;;;;;;;;1715659;82;21500;-62
2022/07/12 03:13:55;;;;;;;2.45;1.70;;;;;;;;;;1714663;84;21057;-62
2022/07/12 03:16:21;;;;;;;3.22;1.90;;;;;;;;;;1722264;82;20998;-62
2022/07/12 03:18:47;;;;;;;2.12;1.70;;;;;;;;;;1728784;83;21061;-62
2022/07/12 03:21:13;;;;;;;2.17;1.77;;;;;;;;;;1719419;82;20998;-63
2022/07/12 03:23:40;;;;;;;4.08;1.87;;;;;;;;;;1714221;82;21029;-63
2022/07/12 03:26:07;;;;;;;2.80;1.70;;;;;;;;;;1719513;83;21254;-62
2022/07/12 03:28:34;;;;;;;2.08;1.60;;;;;;;;;;1728571;83;21509;-62
2022/07/12 03:31:01;;;;;;;2.20;1.52;;;;;;;;;;1722117;82;21061;-62
2022/07/12 03:33:27;;;;;;;2.12;1.62;;;;;;;;;;1714460;84;21057;-62
2022/07/12 03:35:55;;;;;;;3.72;1.70;;;;;;;;;;1717797;83;21578;-62
2022/07/12 03:38:21;;;;;;;4.08;1.87;;;;;;;;;;1728559;83;21521;-62
2022/07/12 03:40:47;;;;;;;5.83;1.70;;;;;;;;;;1722837;82;21581;-62
2022/07/12 03:43:14;;;;;;;3.65;1.70;;;;;;;;;;1714527;84;21055;-62
2022/07/12 03:45:43;;;;;;;2.37;1.60;;;;;;;;;;1726019;83;21116;-62
2022/07/12 03:48:09;;;;;;;1.50;1.32;;;;;;;;;;1728852;83;21078;-62
2022/07/12 03:50:35;;;;;;;1.90;1.50;;;;;;;;;;1729980;82;21038;-62
2022/07/12 03:53:01;;;;;;;1.98;1.57;;;;;;;;;;1715913;84;21076;-62
2022/07/12 03:55:28;;;;;;;2.90;1.70;;;;;;;;;;1721200;82;21033;-62
2022/07/12 03:57:54;;;;;;;2.02;1.55;;;;;;;;;;1732479;82;21049;-62
2022/07/12 04:00:20;;;;;;;3.02;1.70;;;;;;;;;;1724945;82;21049;-62
2022/07/12 04:02:47;;;;;;;3.33;1.70;;;;;;;;;;1716034;84;21045;-62
2022/07/12 04:05:13;;;;;;;2.83;1.57;;;;;;;;;;1716078;83;21013;-62
2022/07/12 04:07:39;;;;;;;1.70;1.40;;;;;;;;;;1716589;83;21057;-62
2022/07/12 04:10:06;;;;;;;3.33;1.70;;;;;;;;;;1728184;82;21104;-62
2022/07/12 04:12:32;;;;;;;1.40;1.30;;;;;;;;;;1687479;85;21505;-62
2022/07/12 04:14:59;;;;;;;2.17;1.57;;;;;;;;;;1687171;85;21096;-62
2022/07/12 04:17:25;;;;;;;1.82;1.50;;;;;;;;;;1707845;82;21108;-62
2022/07/12 04:19:52;;;;;;;2.85;1.52;;;;;;;;;;1715055;83;21532;-62
2022/07/12 04:22:18;;;;;;;1.62;1.52;;;;;;;;;;1729680;82;21047;-62
2022/07/12 04:24:44;;;;;;;2.45;1.80;;;;;;;;;;1722526;82;21079;-62
2022/07/12 04:27:10;;;;;;;2.95;1.60;;;;;;;;;;1718027;82;21076;-62
2022/07/12 04:29:37;;;;;;;2.87;1.70;;;;;;;;;;1718356;83;21077;-62
2022/07/12 04:32:05;;;;;;;2.02;1.52;;;;;;;;;;1715471;82;21088;-62
2022/07/12 04:34:31;;;;;;;2.75;1.50;;;;;;;;;;1716211;83;21556;-61
2022/07/12 04:36:58;;;;;;;2.72;1.62;;;;;;;;;;1727647;82;21128;-61
2022/07/12 04:39:24;;;;;;;3.62;1.82;;;;;;;;;;1730413;82;21096;-62
2022/07/12 04:41:50;;;;;;;4.40;1.70;;;;;;;;;;1719017;82;21038;-61
2022/07/12 04:44:16;;;;;;;2.50;1.55;;;;;;;;;;1724360;82;21037;-62
2022/07/12 04:46:42;;;;;;;2.60;1.60;;;;;;;;;;1716257;84;21453;-65
2022/07/12 04:49:09;;;;;;;2.20;1.70;;;;;;;;;;1716322;82;21056;-62
2022/07/12 04:51:35;;;;;;;2.83;1.70;;;;;;;;;;1725583;82;20994;-62
2022/07/12 04:54:03;;;;;;;1.77;1.65;;;;;;;;;;1729695;82;21571;-61
2022/07/12 04:56:29;;;;;;;2.40;1.60;;;;;;;;;;1720985;82;21116;-61
2022/07/12 04:58:55;;;;;;;2.58;1.72;;;;;;;;;;1727978;82;21025;-62
2022/07/12 05:01:22;;;;;;;3.95;1.80;;;;;;;;;;1722395;82;21064;-60
2022/07/12 05:03:48;;;;;;;1.65;1.52;;;;;;;;;;1716112;82;21631;-61
2022/07/12 05:06:15;;;;;;;1.75;1.62;;;;;;;;;;1737315;82;21058;-60
2022/07/12 05:08:41;;;;;;;2.22;1.32;;;;;;;;;;1750382;82;21033;-60
2022/07/12 05:11:08;;;;;;;4.90;1.77;;;;;;;;;;1736016;82;21069;-61
2022/07/12 05:13:34;;;;;;;2.35;1.92;;;;;;;;;;1736710;83;21046;-61
2022/07/12 05:16:00;;;;;;;2.52;1.60;;;;;;;;;;1746475;82;21583;-61
2022/07/12 05:18:27;;;;;;;4.70;1.90;;;;;;;;;;1719453;82;21038;-61
2022/07/12 05:20:53;;;;;;;3.05;1.57;;;;;;;;;;1715283;82;20999;-62
2022/07/12 05:23:19;;;;;;;1.60;1.50;;;;;;;;;;1716309;83;21520;-62
2022/07/12 05:25:45;;;;;;;3.12;2.10;;;;;;;;;;1714576;83;21068;-61
2022/07/12 05:28:12;;;;;;;1.95;1.72;;;;;;;;;;1714668;82;21050;-61
2022/07/12 05:30:38;;;;;;;2.27;1.70;;;;;;;;;;1693948;83;21055;-61
2022/07/12 05:33:04;;;;;;;3.10;2.17;;;;;;;;;;1728229;82;21042;-62
2022/07/12 05:35:31;;;;;;;4.72;3.10;;;;;;;;;;1722018;82;21035;-61
2022/07/12 05:37:57;;;;;;;1.92;1.70;;;;;;;;;;1722875;82;21039;-61
2022/07/12 05:40:23;;;;;;;3.70;1.82;;;;;;;;;;1716360;82;21078;-62
2022/07/12 05:42:49;;;;;;;2.30;1.80;;;;;;;;;;1704888;83;21074;-62
2022/07/12 05:45:15;;;;;;;2.15;1.77;;;;;;;;;;1727332;82;21493;-62
2022/07/12 05:47:41;;;;;;;2.98;1.60;;;;;;;;;;1720925;83;22087;-62
2022/07/12 05:50:08;;;;;;;2.52;1.80;;;;;;;;;;1724486;82;21098;-61
2022/07/12 05:55:19;;;;;;;3.50;1.80;;;;;;;;;;1719978;83;21050;-60
2022/07/12 05:57:45;;;;;;;2.70;1.60;;;;;;;;;;1720259;83;21110;-61
2022/07/12 06:00:13;;;;;;;2.27;1.60;;;;;;;;;;1720042;82;21549;-60
2022/07/12 06:02:39;;;;;;;4.17;1.80;;;;;;;;;;1718597;82;21617;-60
2022/07/12 06:05:06;;;;;;;1.57;1.47;;;;;;;;;;1718299;83;21149;-61
2022/07/12 06:07:33;;;;;;;3.05;1.80;;;;;;;;;;1714366;84;21091;-61
2022/07/12 06:09:59;;;;;;;2.27;1.67;;;;;;;;;;1714660;84;21124;-61
2022/07/12 06:12:25;;;;;;;1.67;1.57;;;;;;;;;;1715007;82;21072;-61
2022/07/12 06:14:51;;;;;;;5.72;2.15;;;;;;;;;;1714342;84;21614;-61
2022/07/12 06:17:22;;;;;;;3.12;1.75;;;;;;;;;;1714390;84;21189;-60
2022/07/12 06:19:46;;;;;;;1.98;1.37;;;;;;;;;;1714012;84;21120;-62
2022/07/12 06:22:12;;;;;;;2.45;1.67;;;;;;;;;;1718660;82;21069;-62
2022/07/12 06:24:38;;;;;;;2.50;1.90;;;;;;;;;;1715113;84;21556;-62
2022/07/12 06:27:05;;;;;;;2.58;1.60;;;;;;;;;;1711102;83;21031;-61
2022/07/12 06:29:33;;;;;;;2.98;1.80;;;;;;;;;;1710982;84;21102;-62
2022/07/12 06:31:59;;;;;;;1.92;1.62;;;;;;;;;;1714998;82;21533;-63
2022/07/12 06:34:25;;;;;;;3.25;1.60;;;;;;;;;;1715076;84;21517;-65
2022/07/12 06:36:51;;;;;;;5.50;1.60;;;;;;;;;;1710524;84;21066;-62
2022/07/12 06:39:18;;;;;;;2.90;1.80;;;;;;;;;;1711689;83;21041;-62
2022/07/12 06:41:44;;;;;;;1.82;1.50;;;;;;;;;;1715119;82;21031;-61
2022/07/12 06:44:10;;;;;;;1.60;1.50;;;;;;;;;;1712777;83;21186;-62
2022/07/12 06:46:36;;;;;;;1.75;1.50;;;;;;;;;;1715225;84;21057;-61
2022/07/12 06:49:02;;;;;;;3.02;1.90;;;;;;;;;;1715762;84;21576;-61
2022/07/12 06:51:29;;;;;;;3.05;1.85;;;;;;;;;;1714006;82;21111;-61
2022/07/12 06:53:56;;;;;;;2.10;1.40;;;;;;;;;;1715973;84;21072;-62
2022/07/12 06:56:22;;;;;;;1.60;1.50;;;;;;;;;;1715965;83;21069;-62
2022/07/12 06:58:48;;;;;;;2.52;1.60;;;;;;;;;;1714543;83;21042;-62
2022/07/12 07:01:15;;;;;;;4.37;2.00;;;;;;;;;;1714887;82;21037;-61
2022/07/12 07:03:41;;;;;;;2.20;1.60;;;;;;;;;;1714532;82;21081;-61
2022/07/12 07:06:07;;;;;;;1.67;1.57;;;;;;;;;;1715673;83;21057;-61
2022/07/12 07:08:33;;;;;;;2.35;1.50;;;;;;;;;;1717721;83;21536;-61
2022/07/12 07:10:59;;;;;;;8.68;6.60;;;;;;;;;;1716328;83;21025;-61
2022/07/12 07:13:26;;;;;;;15.40;13.18;;;;;;;;;;1716020;83;21598;-62
2022/07/12 07:15:52;;;;;;;7.45;5.25;;;;;;;;;;1717687;83;21069;-61
2022/07/12 07:18:18;;;;;;;2.65;1.77;;;;;;;;;;1717909;83;21108;-60
2022/07/12 07:20:44;;;;;;;1.55;1.40;;;;;;;;;;1711830;82;21017;-61
2022/07/12 07:23:14;;;;;;;3.10;1.70;;;;;;;;;;1714737;82;22118;-61
2022/07/12 07:25:39;;;;;;;2.02;1.50;;;;;;;;;;1711206;81;21516;-61
2022/07/12 07:28:05;;;;;;;2.05;1.37;;;;;;;;;;1713332;83;21056;-61
2022/07/12 07:33:17;;;;;;;2.52;1.52;;;;;;;;;;1715341;82;21120;-60
2022/07/12 07:35:43;;;;;;;2.42;1.30;;;;;;;;;;1714877;83;21108;-61
2022/07/12 07:38:10;;;;;;;2.37;1.45;;;;;;;;;;1704147;82;21303;-61
2022/07/12 07:40:36;;;;;;;2.60;1.60;;;;;;;;;;1720466;82;20993;-61
2022/07/12 07:43:02;;;;;;;1.52;1.42;;;;;;;;;;1719955;82;21501;-61
2022/07/12 07:45:29;;;;;;;1.52;1.25;;;;;;;;;;1719880;82;21123;-62
2022/07/12 07:47:55;;;;;;;2.72;1.50;;;;;;;;;;1722505;82;21145;-61
2022/07/12 07:50:21;;;;;;;2.05;1.60;;;;;;;;;;1716144;83;21025;-62
2022/07/12 07:52:49;;;;;;;2.92;1.70;;;;;;;;;;1718726;82;21103;-60
2022/07/12 07:55:16;;;;;;;2.40;1.50;;;;;;;;;;1720850;82;21540;-61
2022/07/12 07:57:42;;;;;;;2.50;1.65;;;;;;;;;;1718770;83;21113;-60
2022/07/12 08:00:09;;;;;;;3.17;1.50;;;;;;;;;;1742152;82;21052;-61
2022/07/12 08:02:38;;;;;;;3.17;1.55;;;;;;;;;;1713629;83;21092;-61
2022/07/12 08:05:05;;;;;;;2.72;1.32;;;;;;;;;;1716364;83;21084;-61
2022/07/12 08:07:31;;;;;;;1.85;1.32;;;;;;;;;;1714734;83;21009;-61
2022/07/12 08:09:57;;;;;;;1.62;1.50;;;;;;;;;;1715309;82;21524;-61
2022/07/12 08:12:23;;;;;;;3.17;1.50;;;;;;;;;;1718442;83;21574;-62
2022/07/12 08:14:50;;;;;;;2.00;1.50;;;;;;;;;;1713484;82;21033;-62
2022/07/12 08:17:16;;;;;;;2.40;1.52;;;;;;;;;;1711279;82;21531;-62
2022/07/12 08:19:42;;;;;;;1.95;1.72;;;;;;;;;;1726209;83;21068;-63
2022/07/12 08:22:09;;;;;;;1.37;1.27;;;;;;;;;;1719934;82;21056;-63
2022/07/12 08:24:36;;;;;;;2.98;1.70;;;;;;;;;;1725505;82;21528;-63
2022/07/12 08:27:04;;;;;;;2.40;1.70;;;;;;;;;;1717004;82;21084;-63
2022/07/12 08:29:30;;;;;;;2.85;1.80;;;;;;;;;;1712635;82;21009;-63
2022/07/12 08:31:56;;;;;;;1.65;1.45;;;;;;;;;;1715059;82;21052;-60
2022/07/12 08:34:22;;;;;;;18.27;14.60;;;;;;;;;;1717345;82;21564;-63
2022/07/12 08:36:48;;;;;;;11.70;8.38;;;;;;;;;;1719579;83;21025;-63
2022/07/12 08:39:14;;;;;;;8.70;6.08;;;;;;;;;;1716171;83;21069;-64
2022/07/12 08:41:40;;;;;;;2.75;1.82;;;;;;;;;;1723267;82;21010;-62
2022/07/12 08:44:07;;;;;;;1.92;1.57;;;;;;;;;;1727629;82;21088;-62
2022/07/12 08:46:33;;;;;;;2.33;1.60;;;;;;;;;;1719503;82;21580;-62
2022/07/12 08:49:02;;;;;;;1.70;1.50;;;;;;;;;;1715827;84;21076;-63
2022/07/12 08:51:28;;;;;;;2.12;1.80;;;;;;;;;;1715777;83;21041;-64
2022/07/12 08:54:09;;;;;;;3.52;1.90;;;;;;;;;;1721973;83;21093;-63
2022/07/12 08:56:37;;;;;;;2.47;2.17;;;;;;;;;;1721815;82;21057;-63
2022/07/12 08:59:11;;;;;;;1.70;1.57;;;;;;;;;;1727794;83;21069;-64
2022/07/12 09:01:45;;;;;;;1.70;1.60;;;;;;;;;;1724847;82;21124;-62
2022/07/12 09:04:15;;;;;;;2.70;1.80;;;;;;;;;;1716078;82;21690;-63
2022/07/12 09:06:41;;;;;;;1.87;1.60;;;;;;;;;;1724586;82;21477;-62
2022/07/12 09:09:08;;;;;;;3.95;1.60;;;;;;;;;;1718514;83;21036;-63
2022/07/12 09:11:35;;;;;;;1.92;1.40;;;;;;;;;;1718161;83;21005;-63
2022/07/12 09:14:02;;;;;;;2.08;1.50;;;;;;;;;;1719980;82;21160;-64
2022/07/12 09:16:28;;;;;;;2.52;1.70;;;;;;;;;;1716662;82;21326;-62
2022/07/12 09:18:56;;;;;;;2.52;1.60;;;;;;;;;;1715301;82;21093;-63
2022/07/12 09:21:26;;;;;;;1.92;1.67;;;;;;;;;;1701793;83;21005;-61
2022/07/12 09:23:54;;;;;;;2.17;1.52;;;;;;;;;;1718504;83;21093;-64
2022/07/12 09:26:20;;;;;;;4.42;1.50;;;;;;;;;;1719037;82;21559;-63
2022/07/12 09:28:48;;;;;;;2.40;1.72;;;;;;;;;;1711872;83;21032;-61
2022/07/12 09:31:15;;;;;;;2.05;1.57;;;;;;;;;;1718151;82;21521;-61
2022/07/12 09:36:25;;;;;;;1.42;1.32;;;;;;;;;;1718699;82;21493;-62
2022/07/12 09:38:53;;;;;;;1.45;1.35;;;;;;;;;;1705370;83;22188;-62
2022/07/12 09:41:20;;;;;;;2.02;1.35;;;;;;;;;;1717973;83;21559;-62
2022/07/12 09:43:46;;;;;;;1.10;1.10;;;;;;;;;;1716345;82;21512;-63
2022/07/12 09:46:13;;;;;;;1.60;1.30;;;;;;;;;;1714495;83;21615;-62
2022/07/12 09:48:39;;;;;;;1.40;1.30;;;;;;;;;;1716946;82;21005;-63
2022/07/12 09:51:05;;;;;;;2.08;1.17;;;;;;;;;;1715773;83;21049;-63
2022/07/12 09:53:33;;;;;;;1.67;1.20;;;;;;;;;;1714229;83;21115;-63
2022/07/12 09:56:01;;;;;;;1.70;1.30;;;;;;;;;;1718133;83;21036;-62
2022/07/12 09:58:29;;;;;;;2.50;1.10;;;;;;;;;;1713760;83;21048;-62
2022/07/12 10:00:59;;;;;;;2.70;1.32;;;;;;;;;;1680923;84;21033;-62
2022/07/12 10:03:26;;;;;;;1.20;1.10;;;;;;;;;;1711572;83;21077;-63
2022/07/12 10:05:52;;;;;;;2.15;1.55;;;;;;;;;;1717608;82;21048;-62
2022/07/12 10:08:21;;;;;;;2.42;1.40;;;;;;;;;;1714944;82;21092;-62
2022/07/12 10:10:49;;;;;;;3.95;2.45;;;;;;;;;;1716851;82;21017;-63
2022/07/12 10:13:16;;;;;;;3.17;1.55;;;;;;;;;;1719066;83;21100;-64
2022/07/12 10:15:45;;;;;;;1.20;1.10;;;;;;;;;;1716139;82;21048;-61
2022/07/12 10:18:15;;;;;;;2.25;1.37;;;;;;;;;;1718510;82;21005;-61
2022/07/12 10:20:41;;;;;;;1.30;1.20;;;;;;;;;;1717354;82;21025;-61
2022/07/12 10:23:09;;;;;;;2.80;1.37;;;;;;;;;;1718351;82;21037;-61
2022/07/12 10:25:35;;;;;;;14.25;10.90;;;;;;;;;;1706150;82;21029;-61
2022/07/12 10:28:02;;;;;;;7.30;4.22;;;;;;;;;;1734563;82;21064;-63
2022/07/12 10:30:28;;;;;;;2.83;1.80;;;;;;;;;;1714227;82;21109;-62
2022/07/12 10:32:57;;;;;;;1.52;1.40;;;;;;;;;;1716674;82;21185;-63
2022/07/12 10:35:23;;;;;;;1.98;1.30;;;;;;;;;;1714243;82;21001;-62
2022/07/12 10:38:08;;;;;;;4.72;1.60;;;;;;;;;;1716787;82;21068;-61
2022/07/12 10:40:35;;;;;;;3.15;1.30;;;;;;;;;;1722578;82;21037;-62
2022/07/12 10:43:07;;;;;;;2.65;1.35;;;;;;;;;;1723682;82;21040;-63
2022/07/12 10:45:34;;;;;;;1.65;1.52;;;;;;;;;;1717138;82;21073;-62
2022/07/12 10:48:02;;;;;;;1.77;1.12;;;;;;;;;;1718276;82;21100;-62
2022/07/12 10:50:45;;;;;;;1.85;1.20;;;;;;;;;;1707128;82;21033;-62
2022/07/12 10:53:19;;;;;;;1.40;1.30;;;;;;;;;;1711400;82;21086;-63
2022/07/12 10:56:06;;;;;;;2.02;1.32;;;;;;;;;;1713407;82;21606;-66
2022/07/12 10:58:37;;;;;;;1.45;1.25;;;;;;;;;;1713808;82;21032;-63
2022/07/12 11:01:03;;;;;;;1.40;1.30;;;;;;;;;;1717902;82;21002;-63
2022/07/12 11:03:30;;;;;;;1.25;1.10;;;;;;;;;;1716491;82;21080;-63
2022/07/12 11:06:03;;;;;;;1.82;1.27;;;;;;;;;;1712999;83;21109;-62
2022/07/12 11:08:29;;;;;;;1.32;1.20;;;;;;;;;;1718376;83;21048;-62
2022/07/12 11:10:56;;;;;;;1.52;1.40;;;;;;;;;;1720229;82;21639;-63
2022/07/12 11:13:24;;;;;;;2.25;1.27;;;;;;;;;;1719280;82;21084;-62
2022/07/12 11:15:57;;;;;;;2.40;1.30;;;;;;;;;;1718903;83;21028;-63
2022/07/12 11:18:27;;;;;;;3.95;1.17;;;;;;;;;;1725682;82;21080;-61
2022/07/12 11:20:57;;;;;;;1.15;0.90;;;;;;;;;;1737481;82;21080;-61
2022/07/12 11:24:02;;;;;;;1.25;1.15;;;;;;;;;;1767694;79;22961;-62
2022/07/12 11:26:28;;;;;;;1.05;1.05;;;;;;;;;;1743795;81;21007;-63
2022/07/12 11:28:56;;;;;;;1.45;1.30;;;;;;;;;;1707584;81;21040;-62
2022/07/12 11:31:23;;;;;;;2.98;1.40;;;;;;;;;;1735110;81;21015;-64
2022/07/12 11:33:50;;;;;;;1.30;1.20;;;;;;;;;;1712436;81;21041;-62
2022/07/12 11:36:17;;;;;;;0.98;0.98;;;;;;;;;;1744471;81;20991;-63
2022/07/12 11:38:44;;;;;;;1.55;1.02;;;;;;;;;;1744833;81;21075;-63
2022/07/12 11:41:12;;;;;;;2.60;1.20;;;;;;;;;;1743148;81;21029;-62
2022/07/12 11:43:38;;;;;;;1.40;1.30;;;;;;;;;;1747195;81;21040;-62
2022/07/12 11:46:05;;;;;;;1.30;1.20;;;;;;;;;;1749994;81;21107;-60
2022/07/12 11:48:33;;;;;;;1.90;1.12;;;;;;;;;;1756843;81;21033;-62
2022/07/12 11:51:00;;;;;;;1.12;1.00;;;;;;;;;;1749294;81;21101;-64
2022/07/12 11:53:26;;;;;;;9.90;8.23;;;;;;;;;;1754744;81;21024;-61
2022/07/12 11:55:55;;;;;;;12.85;10.88;;;;;;;;;;1755593;81;21468;-62
2022/07/12 11:58:21;;;;;;;32.13;28.80;;;;;;;;;;1752562;81;21173;-64
2022/07/12 12:00:48;;;;;;;4.95;3.95;;;;;;;;;;1746855;81;21628;-63
2022/07/12 12:03:16;;;;;;;3.05;2.20;;;;;;;;;;1711185;83;21080;-62
2022/07/12 12:05:42;;;;;;;1.00;1.00;;;;;;;;;;1724488;82;21072;-63
2022/07/12 12:08:12;;;;;;;4.12;1.70;;;;;;;;;;1722625;81;21017;-62
2022/07/12 12:10:39;;;;;;;2.83;1.70;;;;;;;;;;1740941;81;21630;-63
2022/07/12 12:13:08;;;;;;;2.02;1.62;;;;;;;;;;1733344;81;21017;-65
2022/07/12 12:15:35;;;;;;;4.42;1.80;;;;;;;;;;1734432;81;21124;-64
2022/07/12 12:18:02;;;;;;;1.57;1.40;;;;;;;;;;1735773;81;21057;-63
2022/07/12 12:20:29;;;;;;;2.25;1.50;;;;;;;;;;1671446;85;21003;-63
2022/07/12 12:22:56;;;;;;;15.13;10.13;;;;;;;;;;1652789;86;21057;-62
2022/07/12 12:25:23;;;;;;;4.37;3.05;;;;;;;;;;1651316;86;21057;-62
2022/07/12 12:27:52;;;;;;;11.43;7.62;;;;;;;;;;1649094;86;22294;-61
2022/07/12 12:30:18;;;;;;;4.12;1.70;;;;;;;;;;1650098;86;21053;-62
2022/07/12 12:32:46;;;;;;;3.02;1.30;;;;;;;;;;1662273;86;21013;-63
2022/07/12 12:35:12;;;;;;;3.80;1.55;;;;;;;;;;1667419;86;21515;-62
2022/07/12 12:37:39;;;;;;;2.72;1.55;;;;;;;;;;1666598;85;21125;-62
2022/07/12 12:40:07;;;;;;;1.65;1.30;;;;;;;;;;1665994;86;21063;-62
2022/07/12 12:42:33;;;;;;;1.77;1.10;;;;;;;;;;1665973;86;21038;-62
2022/07/12 12:44:59;;;;;;;1.80;1.30;;;;;;;;;;1663186;86;21072;-62
2022/07/12 12:47:31;;;;;;;1.98;1.32;;;;;;;;;;1662558;85;21041;-62
2022/07/12 12:49:57;;;;;;;2.25;1.37;;;;;;;;;;1668421;84;21046;-62
2022/07/12 12:52:24;;;;;;;2.50;1.35;;;;;;;;;;1664221;86;21583;-62
2022/07/12 12:54:51;;;;;;;2.58;1.40;;;;;;;;;;1666205;85;21017;-63
2022/07/12 12:57:17;;;;;;;3.40;1.60;;;;;;;;;;1666365;85;21077;-62
2022/07/12 12:59:43;;;;;;;4.28;1.52;;;;;;;;;;1668446;85;21486;-62
2022/07/12 13:02:09;;;;;;;3.90;1.52;;;;;;;;;;1660256;86;21100;-61
2022/07/12 13:04:37;;;;;;;2.45;1.60;;;;;;;;;;1663874;86;21044;-63
2022/07/12 13:07:05;;;;;;;3.25;1.72;;;;;;;;;;1664860;86;21568;-62
2022/07/12 13:09:31;;;;;;;3.37;1.70;;;;;;;;;;1663748;85;21012;-60
2022/07/12 13:11:58;;;;;;;1.70;1.40;;;;;;;;;;1661655;86;21065;-62
2022/07/12 13:14:24;;;;;;;2.90;1.80;;;;;;;;;;1662512;86;21093;-62
2022/07/12 13:16:51;;;;;;;3.95;1.60;;;;;;;;;;1667526;86;20997;-61
2022/07/12 13:19:17;;;;;;;2.30;1.40;;;;;;;;;;1660653;85;21130;-62
2022/07/12 13:21:44;;;;;;;3.67;1.62;;;;;;;;;;1665515;86;21058;-61
2022/07/12 13:24:11;;;;;;;2.45;1.57;;;;;;;;;;1656717;85;21125;-61
2022/07/12 13:26:37;;;;;;;26.57;21.40;;;;;;;;;;1660864;86;21049;-64
2022/07/12 13:29:03;;;;;;;15.35;11.73;;;;;;;;;;1658768;85;21005;-64
2022/07/12 13:31:30;;;;;;;9.38;4.37;;;;;;;;;;1647361;86;21041;-65
2022/07/12 13:33:56;;;;;;;5.55;2.60;;;;;;;;;;1645865;86;21076;-65
2022/07/12 13:36:22;;;;;;;1.80;1.45;;;;;;;;;;1632079;87;21056;-64
2022/07/12 13:38:49;;;;;;;2.72;1.50;;;;;;;;;;1630728;86;21113;-63
2022/07/12 13:41:24;;;;;;;2.20;1.35;;;;;;;;;;1634562;86;21149;-63
2022/07/12 13:43:51;;;;;;;1.50;1.40;;;;;;;;;;1625471;87;21112;-61
2022/07/12 13:46:17;;;;;;;2.37;1.60;;;;;;;;;;1611325;87;21093;-63
2022/07/12 13:48:45;;;;;;;1.70;1.40;;;;;;;;;;1632013;86;21042;-63
2022/07/12 13:51:11;;;;;;;1.42;1.32;;;;;;;;;;1620106;87;21036;-62
2022/07/12 13:53:37;;;;;;;1.98;1.50;;;;;;;;;;1629080;87;21005;-62
2022/07/12 13:56:04;;;;;;;1.95;1.30;;;;;;;;;;1624180;87;21526;-63
2022/07/12 13:58:30;;;;;;;2.40;1.40;;;;;;;;;;1642451;86;21520;-62
2022/07/12 14:00:56;;;;;;;1.55;1.45;;;;;;;;;;1625190;87;21088;-63
2022/07/12 14:03:22;;;;;;;1.37;1.27;;;;;;;;;;1604154;87;21150;-62
2022/07/12 14:05:48;;;;;;;1.30;1.20;;;;;;;;;;1626051;86;21169;-62
2022/07/12 14:08:15;;;;;;;1.50;1.40;;;;;;;;;;1632659;86;21069;-63
2022/07/12 14:10:42;;;;;;;1.30;1.20;;;;;;;;;;1635701;86;21064;-62
2022/07/12 14:13:10;;;;;;;1.80;1.35;;;;;;;;;;1627393;87;21073;-63
2022/07/12 14:15:38;;;;;;;2.87;1.30;;;;;;;;;;1625570;86;21132;-62
2022/07/12 14:18:05;;;;;;;2.17;1.40;;;;;;;;;;1625510;87;22229;-62
2022/07/12 14:20:32;;;;;;;1.42;1.32;;;;;;;;;;1621851;87;21049;-62
2022/07/12 14:22:58;;;;;;;1.40;1.30;;;;;;;;;;1635208;84;21132;-63
2022/07/12 14:25:25;;;;;;;1.85;1.40;;;;;;;;;;1673336;84;21071;-62
2022/07/12 14:27:50;;;;;;;1.80;1.37;;;;;;;;;;1673813;84;21132;-63
2022/07/12 14:30:16;;;;;;;1.77;1.40;;;;;;;;;;1673918;84;21832;-63
2022/07/12 14:32:43;;;;;;;1.40;1.25;;;;;;;;;;1659737;84;21089;-62
2022/07/12 14:35:09;;;;;;;2.25;1.50;;;;;;;;;;1641403;87;21137;-61
2022/07/12 14:37:36;;;;;;;2.25;1.60;;;;;;;;;;1673544;84;21069;-61
2022/07/12 14:40:03;;;;;;;3.40;1.60;;;;;;;;;;1680882;84;21227;-61
2022/07/12 14:42:30;;;;;;;1.50;1.40;;;;;;;;;;1659802;85;21062;-61
2022/07/12 14:44:57;;;;;;;1.75;1.55;;;;;;;;;;1680005;84;21054;-62
2022/07/12 14:47:24;;;;;;;36.10;32.25;;;;;;;;;;1663947;85;21088;-63
2022/07/12 14:49:50;;;;;;;56.13;43.33;;;;;;;;;;1642834;86;21074;-63
2022/07/12 14:52:17;;;;;;;21.23;17.05;;;;;;;;;;1643762;85;21073;-63